sensor_id;sensor_type;location;lat;lon;timestamp;temperature;humidity
11304;DHT22;5707;49.588;12.148;2024-02-28T00:00:50;4.30;99.90
11304;DHT22;5707;49.588;12.148;2024-02-28T00:03:17;4.20;99.90
11304;DHT22;5707;49.588;12.148;2024-02-28T00:05:42;4.20;99.90
11304;DHT22;5707;49.588;12.148;2024-02-28T00:08:08;4.10;99.90
11304;DHT22;5707;49.588;12.148;2024-02-28T00:10:34;4.20;99.90
11304;DHT22;5707;49.588;12.148;2024-02-28T00:12:59;4.20;99.90
11304;DHT22;5707;49.588;12.148;2024-02-28T00:15:25;4.20;99.90
11304;DHT22;5707;49.588;12.148;2024-02-28T00:17:52;4.20;99.90
11304;DHT22;5707;49.588;12.148;2024-02-28T00:20:18;4.20;99.90
11304;DHT22;5707;49.588;12.148;2024-02-28T00:22:44;4.20;99.90
11304;DHT22;5707;49.588;12.148;2024-02-28T00:25:09;4.20;99.90
11304;DHT22;5707;49.588;12.148;2024-02-28T00:27:37;4.20;99.90
11304;DHT22;5707;49.588;12.148;2024-02-28T00:30:03;4.20;99.90
11304;DHT22;5707;49.588;12.148;2024-02-28T00:32:32;4.20;99.90
11304;DHT22;5707;49.588;12.148;2024-02-28T00:34:57;4.20;99.90
11304;DHT22;5707;49.588;12.148;2024-02-28T00:37:23;4.20;99.90
11304;DHT22;5707;49.588;12.148;2024-02-28T00:39:49;4.20;99.90
11304;DHT22;5707;49.588;12.148;2024-02-28T00:42:15;4.20;99.90
11304;DHT22;5707;49.588;12.148;2024-02-28T00:44:40;4.10;99.90
11304;DHT22;5707;49.588;12.148;2024-02-28T00:47:08;4.20;99.90
11304;DHT22;5707;49.588;12.148;2024-02-28T00:49:34;4.20;99.90
11304;DHT22;5707;49.588;12.148;2024-02-28T00:52:00;4.20;99.90
11304;DHT22;5707;49.588;12.148;2024-02-28T00:54:26;4.20;99.90
11304;DHT22;5707;49.588;12.148;2024-02-28T00:56:51;4.20;99.90
11304;DHT22;5707;49.588;12.148;2024-02-28T00:59:17;4.20;99.90
11304;DHT22;5707;49.588;12.148;2024-02-28T01:01:42;4.20;99.90
11304;DHT22;5707;49.588;12.148;2024-02-28T01:04:08;4.20;99.90
11304;DHT22;5707;49.588;12.148;2024-02-28T01:06:33;4.20;99.90
11304;DHT22;5707;49.588;12.148;2024-02-28T01:08:59;4.10;99.90
11304;DHT22;5707;49.588;12.148;2024-02-28T01:11:25;4.10;99.90
11304;DHT22;5707;49.588;12.148;2024-02-28T01:13:50;4.10;99.90
11304;DHT22;5707;49.588;12.148;2024-02-28T01:16:16;4.10;99.90
11304;DHT22;5707;49.588;12.148;2024-02-28T01:18:42;4.10;99.90
11304;DHT22;5707;49.588;12.148;2024-02-28T01:21:07;4.00;99.90
11304;DHT22;5707;49.588;12.148;2024-02-28T01:23:33;4.00;99.90
11304;DHT22;5707;49.588;12.148;2024-02-28T01:25:58;4.00;99.90
11304;DHT22;5707;49.588;12.148;2024-02-28T01:28:24;4.00;99.90
11304;DHT22;5707;49.588;12.148;2024-02-28T01:30:50;4.00;99.90
11304;DHT22;5707;49.588;12.148;2024-02-28T01:33:15;4.00;99.90
11304;DHT22;5707;49.588;12.148;2024-02-28T01:35:41;4.00;99.90
11304;DHT22;5707;49.588;12.148;2024-02-28T01:38:06;4.00;99.90
11304;DHT22;5707;49.588;12.148;2024-02-28T01:40:32;4.00;99.90
11304;DHT22;5707;49.588;12.148;2024-02-28T01:43:06;4.00;99.90
11304;DHT22;5707;49.588;12.148;2024-02-28T01:45:32;4.00;99.90
11304;DHT22;5707;49.588;12.148;2024-02-28T01:47:58;4.00;99.90
11304;DHT22;5707;49.588;12.148;2024-02-28T01:50:24;4.00;99.90
11304;DHT22;5707;49.588;12.148;2024-02-28T01:52:49;3.90;99.90
11304;DHT22;5707;49.588;12.148;2024-02-28T01:55:15;3.90;99.90
11304;DHT22;5707;49.588;12.148;2024-02-28T01:57:41;3.90;99.90
11304;DHT22;5707;49.588;12.148;2024-02-28T02:00:07;3.90;99.90
11304;DHT22;5707;49.588;12.148;2024-02-28T02:02:36;4.00;99.90
11304;DHT22;5707;49.588;12.148;2024-02-28T02:05:02;3.90;99.90
11304;DHT22;5707;49.588;12.148;2024-02-28T02:07:28;3.90;99.90
11304;DHT22;5707;49.588;12.148;2024-02-28T02:09:54;4.00;99.90
11304;DHT22;5707;49.588;12.148;2024-02-28T02:12:20;3.90;99.90
11304;DHT22;5707;49.588;12.148;2024-02-28T02:14:48;4.00;99.90
11304;DHT22;5707;49.588;12.148;2024-02-28T02:17:14;4.00;99.90
11304;DHT22;5707;49.588;12.148;2024-02-28T02:19:40;4.00;99.90
11304;DHT22;5707;49.588;12.148;2024-02-28T02:22:08;4.00;99.90
11304;DHT22;5707;49.588;12.148;2024-02-28T02:24:34;3.90;99.90
11304;DHT22;5707;49.588;12.148;2024-02-28T02:27:00;4.00;99.90
11304;DHT22;5707;49.588;12.148;2024-02-28T02:29:25;3.90;99.90
11304;DHT22;5707;49.588;12.148;2024-02-28T02:31:53;3.90;99.90
11304;DHT22;5707;49.588;12.148;2024-02-28T02:34:18;3.90;99.90
11304;DHT22;5707;49.588;12.148;2024-02-28T02:36:44;3.90;99.90
11304;DHT22;5707;49.588;12.148;2024-02-28T02:39:09;3.90;99.90
11304;DHT22;5707;49.588;12.148;2024-02-28T02:41:35;3.90;99.90
11304;DHT22;5707;49.588;12.148;2024-02-28T02:44:00;3.90;99.90
11304;DHT22;5707;49.588;12.148;2024-02-28T02:46:26;4.00;99.90
11304;DHT22;5707;49.588;12.148;2024-02-28T02:48:51;3.90;99.90
11304;DHT22;5707;49.588;12.148;2024-02-28T02:51:19;3.90;99.90
11304;DHT22;5707;49.588;12.148;2024-02-28T02:53:45;4.00;99.90
11304;DHT22;5707;49.588;12.148;2024-02-28T02:56:10;4.00;99.90
11304;DHT22;5707;49.588;12.148;2024-02-28T02:58:36;4.00;99.90
11304;DHT22;5707;49.588;12.148;2024-02-28T03:01:01;4.00;99.90
11304;DHT22;5707;49.588;12.148;2024-02-28T03:03:27;3.90;99.90
11304;DHT22;5707;49.588;12.148;2024-02-28T03:05:53;3.90;99.90
11304;DHT22;5707;49.588;12.148;2024-02-28T03:08:18;3.90;99.90
11304;DHT22;5707;49.588;12.148;2024-02-28T03:10:44;3.90;99.90
11304;DHT22;5707;49.588;12.148;2024-02-28T03:13:09;3.90;99.90
11304;DHT22;5707;49.588;12.148;2024-02-28T03:15:35;3.90;99.90
11304;DHT22;5707;49.588;12.148;2024-02-28T03:18:00;3.90;99.90
11304;DHT22;5707;49.588;12.148;2024-02-28T03:20:27;3.90;99.90
11304;DHT22;5707;49.588;12.148;2024-02-28T03:22:52;3.90;99.90
11304;DHT22;5707;49.588;12.148;2024-02-28T03:25:18;3.90;99.90
11304;DHT22;5707;49.588;12.148;2024-02-28T03:27:43;3.90;99.90
11304;DHT22;5707;49.588;12.148;2024-02-28T03:30:09;3.90;99.90
11304;DHT22;5707;49.588;12.148;2024-02-28T03:32:34;3.90;99.90
11304;DHT22;5707;49.588;12.148;2024-02-28T03:35:00;3.90;99.90
11304;DHT22;5707;49.588;12.148;2024-02-28T03:37:25;3.90;99.90
11304;DHT22;5707;49.588;12.148;2024-02-28T03:39:51;3.90;99.90
11304;DHT22;5707;49.588;12.148;2024-02-28T03:42:17;3.90;99.90
11304;DHT22;5707;49.588;12.148;2024-02-28T03:44:42;3.90;99.90
11304;DHT22;5707;49.588;12.148;2024-02-28T03:47:08;3.90;99.90
11304;DHT22;5707;49.588;12.148;2024-02-28T03:49:34;3.90;99.90
11304;DHT22;5707;49.588;12.148;2024-02-28T03:51:59;3.90;99.90
11304;DHT22;5707;49.588;12.148;2024-02-28T03:54:26;3.90;99.90
11304;DHT22;5707;49.588;12.148;2024-02-28T03:56:52;3.90;99.90
11304;DHT22;5707;49.588;12.148;2024-02-28T03:59:17;3.90;99.90
11304;DHT22;5707;49.588;12.148;2024-02-28T04:01:43;3.90;99.90
11304;DHT22;5707;49.588;12.148;2024-02-28T04:04:08;3.90;99.90
11304;DHT22;5707;49.588;12.148;2024-02-28T04:06:34;3.90;99.90
11304;DHT22;5707;49.588;12.148;2024-02-28T04:08:59;4.00;99.90
11304;DHT22;5707;49.588;12.148;2024-02-28T04:11:25;4.00;99.90
11304;DHT22;5707;49.588;12.148;2024-02-28T04:13:51;4.00;99.90
11304;DHT22;5707;49.588;12.148;2024-02-28T04:16:17;3.90;99.90
11304;DHT22;5707;49.588;12.148;2024-02-28T04:18:42;3.90;99.90
11304;DHT22;5707;49.588;12.148;2024-02-28T04:21:08;3.90;99.90
11304;DHT22;5707;49.588;12.148;2024-02-28T04:23:34;3.90;99.90
11304;DHT22;5707;49.588;12.148;2024-02-28T04:26:00;3.90;99.90
11304;DHT22;5707;49.588;12.148;2024-02-28T04:28:25;3.90;99.90
11304;DHT22;5707;49.588;12.148;2024-02-28T04:30:51;3.90;99.90
11304;DHT22;5707;49.588;12.148;2024-02-28T04:33:16;3.90;99.90
11304;DHT22;5707;49.588;12.148;2024-02-28T04:35:42;3.90;99.90
11304;DHT22;5707;49.588;12.148;2024-02-28T04:38:07;3.90;99.90
11304;DHT22;5707;49.588;12.148;2024-02-28T04:40:34;3.90;99.90
11304;DHT22;5707;49.588;12.148;2024-02-28T04:42:59;3.90;99.90
11304;DHT22;5707;49.588;12.148;2024-02-28T04:45:25;3.90;99.90
11304;DHT22;5707;49.588;12.148;2024-02-28T04:47:50;3.90;99.90
11304;DHT22;5707;49.588;12.148;2024-02-28T04:50:17;3.90;99.90
11304;DHT22;5707;49.588;12.148;2024-02-28T04:52:43;3.90;99.90
11304;DHT22;5707;49.588;12.148;2024-02-28T04:55:08;3.90;99.90
11304;DHT22;5707;49.588;12.148;2024-02-28T04:57:34;3.90;99.90
11304;DHT22;5707;49.588;12.148;2024-02-28T05:00:00;3.80;99.90
11304;DHT22;5707;49.588;12.148;2024-02-28T05:02:25;3.80;99.90
11304;DHT22;5707;49.588;12.148;2024-02-28T05:04:51;3.80;99.90
11304;DHT22;5707;49.588;12.148;2024-02-28T05:07:17;3.80;99.90
11304;DHT22;5707;49.588;12.148;2024-02-28T05:09:42;3.80;99.90
11304;DHT22;5707;49.588;12.148;2024-02-28T05:12:08;3.80;99.90
11304;DHT22;5707;49.588;12.148;2024-02-28T05:14:34;3.80;99.90
11304;DHT22;5707;49.588;12.148;2024-02-28T05:16:59;3.80;99.90
11304;DHT22;5707;49.588;12.148;2024-02-28T05:19:25;3.80;99.90
11304;DHT22;5707;49.588;12.148;2024-02-28T05:21:50;3.80;99.90
11304;DHT22;5707;49.588;12.148;2024-02-28T05:24:16;3.80;99.90
11304;DHT22;5707;49.588;12.148;2024-02-28T05:26:42;3.80;99.90
11304;DHT22;5707;49.588;12.148;2024-02-28T05:29:07;3.80;99.90
11304;DHT22;5707;49.588;12.148;2024-02-28T05:31:33;3.80;99.90
11304;DHT22;5707;49.588;12.148;2024-02-28T05:33:59;3.80;99.90
11304;DHT22;5707;49.588;12.148;2024-02-28T05:36:27;3.80;99.90
11304;DHT22;5707;49.588;12.148;2024-02-28T05:38:54;3.80;99.90
11304;DHT22;5707;49.588;12.148;2024-02-28T05:41:21;3.80;99.90
11304;DHT22;5707;49.588;12.148;2024-02-28T05:43:47;3.80;99.90
11304;DHT22;5707;49.588;12.148;2024-02-28T05:46:13;3.80;99.90
11304;DHT22;5707;49.588;12.148;2024-02-28T05:48:43;3.80;99.90
11304;DHT22;5707;49.588;12.148;2024-02-28T05:51:08;3.80;99.90
11304;DHT22;5707;49.588;12.148;2024-02-28T05:53:34;3.80;99.90
11304;DHT22;5707;49.588;12.148;2024-02-28T05:56:04;3.80;99.90
11304;DHT22;5707;49.588;12.148;2024-02-28T05:58:30;3.80;99.90
11304;DHT22;5707;49.588;12.148;2024-02-28T06:00:56;3.80;99.90
11304;DHT22;5707;49.588;12.148;2024-02-28T06:03:22;3.80;99.90
11304;DHT22;5707;49.588;12.148;2024-02-28T06:05:47;3.80;99.90
11304;DHT22;5707;49.588;12.148;2024-02-28T06:08:13;3.80;99.90
11304;DHT22;5707;49.588;12.148;2024-02-28T06:10:39;3.80;99.90
11304;DHT22;5707;49.588;12.148;2024-02-28T06:13:07;3.80;99.90
11304;DHT22;5707;49.588;12.148;2024-02-28T06:15:33;3.90;99.90
11304;DHT22;5707;49.588;12.148;2024-02-28T06:17:59;3.90;99.90
11304;DHT22;5707;49.588;12.148;2024-02-28T06:20:26;3.90;99.90
11304;DHT22;5707;49.588;12.148;2024-02-28T06:22:52;3.90;99.90
11304;DHT22;5707;49.588;12.148;2024-02-28T06:25:17;4.00;99.90
11304;DHT22;5707;49.588;12.148;2024-02-28T06:27:45;4.00;99.90
11304;DHT22;5707;49.588;12.148;2024-02-28T06:30:11;3.90;99.90
11304;DHT22;5707;49.588;12.148;2024-02-28T06:32:40;4.00;99.90
11304;DHT22;5707;49.588;12.148;2024-02-28T06:35:06;4.00;99.90
11304;DHT22;5707;49.588;12.148;2024-02-28T06:37:33;4.10;99.90
11304;DHT22;5707;49.588;12.148;2024-02-28T06:39:58;4.20;99.90
11304;DHT22;5707;49.588;12.148;2024-02-28T06:42:24;4.20;99.90
11304;DHT22;5707;49.588;12.148;2024-02-28T06:44:49;4.30;99.90
11304;DHT22;5707;49.588;12.148;2024-02-28T06:47:15;4.30;99.90
11304;DHT22;5707;49.588;12.148;2024-02-28T06:49:41;4.40;99.90
11304;DHT22;5707;49.588;12.148;2024-02-28T06:52:06;4.40;99.90
11304;DHT22;5707;49.588;12.148;2024-02-28T06:54:32;4.50;99.90
11304;DHT22;5707;49.588;12.148;2024-02-28T06:56:57;4.50;99.90
11304;DHT22;5707;49.588;12.148;2024-02-28T06:59:23;4.60;99.90
11304;DHT22;5707;49.588;12.148;2024-02-28T07:01:49;4.60;99.90
11304;DHT22;5707;49.588;12.148;2024-02-28T07:04:14;4.60;99.90
11304;DHT22;5707;49.588;12.148;2024-02-28T07:06:40;4.60;99.90
11304;DHT22;5707;49.588;12.148;2024-02-28T07:09:08;4.60;99.90
11304;DHT22;5707;49.588;12.148;2024-02-28T07:11:34;4.60;99.90
11304;DHT22;5707;49.588;12.148;2024-02-28T07:13:59;4.60;99.90
11304;DHT22;5707;49.588;12.148;2024-02-28T07:16:28;4.70;99.90
11304;DHT22;5707;49.588;12.148;2024-02-28T07:18:53;4.70;99.90
11304;DHT22;5707;49.588;12.148;2024-02-28T07:21:19;4.80;99.90
11304;DHT22;5707;49.588;12.148;2024-02-28T07:23:44;4.80;99.90
11304;DHT22;5707;49.588;12.148;2024-02-28T07:26:15;4.90;99.90
11304;DHT22;5707;49.588;12.148;2024-02-28T07:28:40;4.90;99.90
11304;DHT22;5707;49.588;12.148;2024-02-28T07:31:06;4.80;99.90
11304;DHT22;5707;49.588;12.148;2024-02-28T07:33:31;4.80;99.90
11304;DHT22;5707;49.588;12.148;2024-02-28T07:35:57;4.80;99.90
11304;DHT22;5707;49.588;12.148;2024-02-28T07:38:29;4.80;99.90
11304;DHT22;5707;49.588;12.148;2024-02-28T07:40:54;4.80;99.90
11304;DHT22;5707;49.588;12.148;2024-02-28T07:43:20;4.80;99.90
11304;DHT22;5707;49.588;12.148;2024-02-28T07:45:45;4.90;99.90
11304;DHT22;5707;49.588;12.148;2024-02-28T07:48:11;5.00;99.90
11304;DHT22;5707;49.588;12.148;2024-02-28T07:50:37;5.00;99.90
11304;DHT22;5707;49.588;12.148;2024-02-28T07:53:04;5.10;99.90
11304;DHT22;5707;49.588;12.148;2024-02-28T07:55:29;5.10;99.90
11304;DHT22;5707;49.588;12.148;2024-02-28T07:57:55;5.10;99.90
11304;DHT22;5707;49.588;12.148;2024-02-28T08:00:20;5.20;99.90
11304;DHT22;5707;49.588;12.148;2024-02-28T08:02:47;5.30;99.90
11304;DHT22;5707;49.588;12.148;2024-02-28T08:05:13;5.30;99.90
11304;DHT22;5707;49.588;12.148;2024-02-28T08:07:40;5.30;99.90
11304;DHT22;5707;49.588;12.148;2024-02-28T08:10:06;5.40;99.90
11304;DHT22;5707;49.588;12.148;2024-02-28T08:12:32;5.50;99.90
11304;DHT22;5707;49.588;12.148;2024-02-28T08:14:58;5.50;99.90
11304;DHT22;5707;49.588;12.148;2024-02-28T08:17:23;5.60;99.90
11304;DHT22;5707;49.588;12.148;2024-02-28T08:19:49;5.60;99.90
11304;DHT22;5707;49.588;12.148;2024-02-28T08:22:14;5.60;99.90
11304;DHT22;5707;49.588;12.148;2024-02-28T08:24:40;5.70;99.90
11304;DHT22;5707;49.588;12.148;2024-02-28T08:27:05;5.70;99.90
11304;DHT22;5707;49.588;12.148;2024-02-28T08:29:31;5.80;99.90
11304;DHT22;5707;49.588;12.148;2024-02-28T08:31:58;5.90;99.90
11304;DHT22;5707;49.588;12.148;2024-02-28T08:34:23;6.10;99.90
11304;DHT22;5707;49.588;12.148;2024-02-28T08:36:49;6.20;99.90
11304;DHT22;5707;49.588;12.148;2024-02-28T08:39:15;6.20;99.90
11304;DHT22;5707;49.588;12.148;2024-02-28T08:41:40;6.30;99.90
11304;DHT22;5707;49.588;12.148;2024-02-28T08:44:06;6.40;99.90
11304;DHT22;5707;49.588;12.148;2024-02-28T08:46:31;6.30;99.90
11304;DHT22;5707;49.588;12.148;2024-02-28T08:48:57;6.30;99.90
11304;DHT22;5707;49.588;12.148;2024-02-28T08:51:22;6.40;99.90
11304;DHT22;5707;49.588;12.148;2024-02-28T08:53:48;6.40;99.90
11304;DHT22;5707;49.588;12.148;2024-02-28T08:56:13;6.50;99.90
11304;DHT22;5707;49.588;12.148;2024-02-28T08:58:39;6.50;99.90
11304;DHT22;5707;49.588;12.148;2024-02-28T09:01:05;6.60;99.90
11304;DHT22;5707;49.588;12.148;2024-02-28T09:03:30;6.60;99.90
11304;DHT22;5707;49.588;12.148;2024-02-28T09:05:56;6.50;99.90
11304;DHT22;5707;49.588;12.148;2024-02-28T09:08:21;6.60;99.90
11304;DHT22;5707;49.588;12.148;2024-02-28T09:10:47;6.50;99.90
11304;DHT22;5707;49.588;12.148;2024-02-28T09:13:13;6.50;99.90
11304;DHT22;5707;49.588;12.148;2024-02-28T09:15:38;6.50;99.90
11304;DHT22;5707;49.588;12.148;2024-02-28T09:18:04;6.50;99.90
11304;DHT22;5707;49.588;12.148;2024-02-28T09:20:30;6.50;99.90
11304;DHT22;5707;49.588;12.148;2024-02-28T09:22:56;6.60;99.90
11304;DHT22;5707;49.588;12.148;2024-02-28T09:25:21;6.40;99.90
11304;DHT22;5707;49.588;12.148;2024-02-28T09:27:47;6.50;99.90
11304;DHT22;5707;49.588;12.148;2024-02-28T09:30:13;6.60;99.90
11304;DHT22;5707;49.588;12.148;2024-02-28T09:32:38;6.60;99.90
11304;DHT22;5707;49.588;12.148;2024-02-28T09:35:04;6.60;99.90
11304;DHT22;5707;49.588;12.148;2024-02-28T09:37:30;6.60;99.90
11304;DHT22;5707;49.588;12.148;2024-02-28T09:39:57;6.60;99.90
11304;DHT22;5707;49.588;12.148;2024-02-28T09:42:22;6.50;99.90
11304;DHT22;5707;49.588;12.148;2024-02-28T09:44:48;6.70;99.90
11304;DHT22;5707;49.588;12.148;2024-02-28T09:47:14;6.90;99.90
11304;DHT22;5707;49.588;12.148;2024-02-28T09:49:42;7.00;99.90
11304;DHT22;5707;49.588;12.148;2024-02-28T09:52:08;7.20;99.90
11304;DHT22;5707;49.588;12.148;2024-02-28T09:54:33;7.40;99.90
11304;DHT22;5707;49.588;12.148;2024-02-28T09:56:59;7.60;99.90
11304;DHT22;5707;49.588;12.148;2024-02-28T09:59:25;7.70;99.90
11304;DHT22;5707;49.588;12.148;2024-02-28T10:01:56;7.70;99.90
11304;DHT22;5707;49.588;12.148;2024-02-28T10:04:25;7.70;99.90
11304;DHT22;5707;49.588;12.148;2024-02-28T10:06:51;7.60;99.90
11304;DHT22;5707;49.588;12.148;2024-02-28T10:09:16;7.60;99.90
11304;DHT22;5707;49.588;12.148;2024-02-28T10:11:42;7.70;99.90
11304;DHT22;5707;49.588;12.148;2024-02-28T10:14:12;7.80;99.90
11304;DHT22;5707;49.588;12.148;2024-02-28T10:16:42;8.00;99.90
11304;DHT22;5707;49.588;12.148;2024-02-28T10:19:07;8.30;99.90
11304;DHT22;5707;49.588;12.148;2024-02-28T10:21:33;8.40;99.90
11304;DHT22;5707;49.588;12.148;2024-02-28T10:23:59;8.50;99.90
11304;DHT22;5707;49.588;12.148;2024-02-28T10:26:25;8.60;99.90
11304;DHT22;5707;49.588;12.148;2024-02-28T10:28:52;8.60;99.90
11304;DHT22;5707;49.588;12.148;2024-02-28T10:31:17;8.50;99.90
11304;DHT22;5707;49.588;12.148;2024-02-28T10:33:43;8.50;99.90
11304;DHT22;5707;49.588;12.148;2024-02-28T10:36:08;8.60;99.90
11304;DHT22;5707;49.588;12.148;2024-02-28T10:38:34;8.80;99.40
11304;DHT22;5707;49.588;12.148;2024-02-28T10:41:01;9.10;98.20
11304;DHT22;5707;49.588;12.148;2024-02-28T10:43:31;9.20;97.90
11304;DHT22;5707;49.588;12.148;2024-02-28T10:45:57;9.30;98.00
11304;DHT22;5707;49.588;12.148;2024-02-28T10:48:24;9.50;96.90
11304;DHT22;5707;49.588;12.148;2024-02-28T10:50:50;9.80;95.70
11304;DHT22;5707;49.588;12.148;2024-02-28T10:53:22;10.00;94.80
11304;DHT22;5707;49.588;12.148;2024-02-28T10:55:49;10.20;94.10
11304;DHT22;5707;49.588;12.148;2024-02-28T10:58:17;10.30;93.00
11304;DHT22;5707;49.588;12.148;2024-02-28T11:00:44;10.30;92.80
11304;DHT22;5707;49.588;12.148;2024-02-28T11:03:13;10.10;93.60
11304;DHT22;5707;49.588;12.148;2024-02-28T11:05:42;10.20;92.90
11304;DHT22;5707;49.588;12.148;2024-02-28T11:08:11;10.40;93.00
11304;DHT22;5707;49.588;12.148;2024-02-28T11:10:45;10.50;92.30
11304;DHT22;5707;49.588;12.148;2024-02-28T11:13:25;10.40;91.90
11304;DHT22;5707;49.588;12.148;2024-02-28T11:15:51;10.30;91.70
11304;DHT22;5707;49.588;12.148;2024-02-28T11:18:17;10.30;92.20
11304;DHT22;5707;49.588;12.148;2024-02-28T11:20:43;10.50;91.70
11304;DHT22;5707;49.588;12.148;2024-02-28T11:23:11;10.80;91.50
11304;DHT22;5707;49.588;12.148;2024-02-28T11:25:37;10.90;88.90
11304;DHT22;5707;49.588;12.148;2024-02-28T11:28:04;10.80;90.60
11304;DHT22;5707;49.588;12.148;2024-02-28T11:30:29;11.10;90.10
11304;DHT22;5707;49.588;12.148;2024-02-28T11:32:55;11.10;88.30
11304;DHT22;5707;49.588;12.148;2024-02-28T11:35:22;10.90;88.80
11304;DHT22;5707;49.588;12.148;2024-02-28T11:37:47;10.70;89.30
11304;DHT22;5707;49.588;12.148;2024-02-28T11:40:14;10.50;90.00
11304;DHT22;5707;49.588;12.148;2024-02-28T11:42:40;10.30;90.50
11304;DHT22;5707;49.588;12.148;2024-02-28T11:45:09;10.10;90.60
11304;DHT22;5707;49.588;12.148;2024-02-28T11:47:35;9.80;91.70
11304;DHT22;5707;49.588;12.148;2024-02-28T11:50:01;9.80;91.80
11304;DHT22;5707;49.588;12.148;2024-02-28T11:52:28;9.80;91.70
11304;DHT22;5707;49.588;12.148;2024-02-28T11:54:54;9.60;92.00
11304;DHT22;5707;49.588;12.148;2024-02-28T11:57:20;9.50;92.40
11304;DHT22;5707;49.588;12.148;2024-02-28T11:59:46;9.50;92.40
11304;DHT22;5707;49.588;12.148;2024-02-28T12:02:12;9.20;92.80
11304;DHT22;5707;49.588;12.148;2024-02-28T12:04:39;8.90;93.70
11304;DHT22;5707;49.588;12.148;2024-02-28T12:07:05;8.80;94.50
11304;DHT22;5707;49.588;12.148;2024-02-28T12:09:31;9.00;93.90
11304;DHT22;5707;49.588;12.148;2024-02-28T12:12:00;9.10;94.00
11304;DHT22;5707;49.588;12.148;2024-02-28T12:14:27;9.40;93.30
11304;DHT22;5707;49.588;12.148;2024-02-28T12:16:52;9.40;93.10
11304;DHT22;5707;49.588;12.148;2024-02-28T12:19:18;9.40;93.20
11304;DHT22;5707;49.588;12.148;2024-02-28T12:21:45;9.40;93.20
11304;DHT22;5707;49.588;12.148;2024-02-28T12:24:11;9.50;93.10
11304;DHT22;5707;49.588;12.148;2024-02-28T12:26:37;9.50;92.80
11304;DHT22;5707;49.588;12.148;2024-02-28T12:29:03;9.60;92.90
11304;DHT22;5707;49.588;12.148;2024-02-28T12:31:29;9.50;93.10
11304;DHT22;5707;49.588;12.148;2024-02-28T12:33:54;9.40;93.10
11304;DHT22;5707;49.588;12.148;2024-02-28T12:36:20;9.20;94.20
11304;DHT22;5707;49.588;12.148;2024-02-28T12:38:46;9.10;94.10
11304;DHT22;5707;49.588;12.148;2024-02-28T12:41:12;9.00;94.20
11304;DHT22;5707;49.588;12.148;2024-02-28T12:43:39;9.10;94.60
11304;DHT22;5707;49.588;12.148;2024-02-28T12:46:05;9.10;94.20
11304;DHT22;5707;49.588;12.148;2024-02-28T12:48:31;9.20;94.20
11304;DHT22;5707;49.588;12.148;2024-02-28T12:50:57;9.10;94.20
11304;DHT22;5707;49.588;12.148;2024-02-28T12:53:23;9.10;94.20
11304;DHT22;5707;49.588;12.148;2024-02-28T12:55:48;9.10;94.30
11304;DHT22;5707;49.588;12.148;2024-02-28T12:58:14;9.00;94.00
11304;DHT22;5707;49.588;12.148;2024-02-28T13:00:39;9.00;94.20
11304;DHT22;5707;49.588;12.148;2024-02-28T13:03:05;9.00;94.30
11304;DHT22;5707;49.588;12.148;2024-02-28T13:05:32;9.00;94.60
11304;DHT22;5707;49.588;12.148;2024-02-28T13:07:57;8.90;94.80
11304;DHT22;5707;49.588;12.148;2024-02-28T13:10:23;8.90;94.50
11304;DHT22;5707;49.588;12.148;2024-02-28T13:12:49;8.90;94.80
11304;DHT22;5707;49.588;12.148;2024-02-28T13:15:14;8.90;94.80
11304;DHT22;5707;49.588;12.148;2024-02-28T13:17:40;8.80;94.90
11304;DHT22;5707;49.588;12.148;2024-02-28T13:20:07;8.70;95.40
11304;DHT22;5707;49.588;12.148;2024-02-28T13:22:33;8.70;95.30
11304;DHT22;5707;49.588;12.148;2024-02-28T13:24:58;8.70;95.70
11304;DHT22;5707;49.588;12.148;2024-02-28T13:27:25;8.60;96.10
11304;DHT22;5707;49.588;12.148;2024-02-28T13:29:51;8.50;96.60
11304;DHT22;5707;49.588;12.148;2024-02-28T13:32:16;8.50;96.50
11304;DHT22;5707;49.588;12.148;2024-02-28T13:34:42;8.50;96.40
11304;DHT22;5707;49.588;12.148;2024-02-28T13:37:07;8.30;96.70
11304;DHT22;5707;49.588;12.148;2024-02-28T13:39:33;8.30;97.30
11304;DHT22;5707;49.588;12.148;2024-02-28T13:42:00;8.30;97.60
11304;DHT22;5707;49.588;12.148;2024-02-28T13:44:25;8.20;97.50
11304;DHT22;5707;49.588;12.148;2024-02-28T13:46:53;8.20;97.80
11304;DHT22;5707;49.588;12.148;2024-02-28T13:49:19;8.10;98.10
11304;DHT22;5707;49.588;12.148;2024-02-28T13:51:45;8.10;98.30
11304;DHT22;5707;49.588;12.148;2024-02-28T13:54:11;8.10;98.60
11304;DHT22;5707;49.588;12.148;2024-02-28T13:56:36;8.20;98.70
11304;DHT22;5707;49.588;12.148;2024-02-28T13:59:03;8.20;98.90
11304;DHT22;5707;49.588;12.148;2024-02-28T14:01:28;8.20;98.60
11304;DHT22;5707;49.588;12.148;2024-02-28T14:03:54;8.10;98.80
11304;DHT22;5707;49.588;12.148;2024-02-28T14:06:20;8.00;99.60
11304;DHT22;5707;49.588;12.148;2024-02-28T14:08:45;7.90;99.50
11304;DHT22;5707;49.588;12.148;2024-02-28T14:11:11;7.90;99.50
11304;DHT22;5707;49.588;12.148;2024-02-28T14:13:37;7.80;99.90
11304;DHT22;5707;49.588;12.148;2024-02-28T14:16:05;7.80;99.90
11304;DHT22;5707;49.588;12.148;2024-02-28T14:18:31;7.70;99.90
11304;DHT22;5707;49.588;12.148;2024-02-28T14:20:56;7.70;99.90
11304;DHT22;5707;49.588;12.148;2024-02-28T14:23:22;7.70;99.90
11304;DHT22;5707;49.588;12.148;2024-02-28T14:25:47;7.70;99.90
11304;DHT22;5707;49.588;12.148;2024-02-28T14:28:13;7.80;99.90
11304;DHT22;5707;49.588;12.148;2024-02-28T14:30:39;7.80;99.90
11304;DHT22;5707;49.588;12.148;2024-02-28T14:33:05;7.90;99.90
11304;DHT22;5707;49.588;12.148;2024-02-28T14:35:30;7.90;99.90
11304;DHT22;5707;49.588;12.148;2024-02-28T14:37:56;7.90;99.90
11304;DHT22;5707;49.588;12.148;2024-02-28T14:40:21;8.00;99.90
11304;DHT22;5707;49.588;12.148;2024-02-28T14:42:47;8.10;99.90
11304;DHT22;5707;49.588;12.148;2024-02-28T14:45:13;8.10;99.90
11304;DHT22;5707;49.588;12.148;2024-02-28T14:47:42;8.30;99.90
11304;DHT22;5707;49.588;12.148;2024-02-28T14:50:10;8.30;99.90
11304;DHT22;5707;49.588;12.148;2024-02-28T14:52:40;8.30;99.90
11304;DHT22;5707;49.588;12.148;2024-02-28T14:55:10;8.40;99.90
11304;DHT22;5707;49.588;12.148;2024-02-28T14:57:36;8.50;99.60
11304;DHT22;5707;49.588;12.148;2024-02-28T15:00:02;8.70;98.90
11304;DHT22;5707;49.588;12.148;2024-02-28T15:02:34;8.90;98.40
11304;DHT22;5707;49.588;12.148;2024-02-28T15:05:00;9.10;97.40
11304;DHT22;5707;49.588;12.148;2024-02-28T15:07:25;9.20;97.20
11304;DHT22;5707;49.588;12.148;2024-02-28T15:09:51;9.40;96.60
11304;DHT22;5707;49.588;12.148;2024-02-28T15:12:16;9.50;96.20
11304;DHT22;5707;49.588;12.148;2024-02-28T15:14:42;9.60;95.40
11304;DHT22;5707;49.588;12.148;2024-02-28T15:17:08;9.50;95.40
11304;DHT22;5707;49.588;12.148;2024-02-28T15:19:33;9.50;95.40
11304;DHT22;5707;49.588;12.148;2024-02-28T15:21:59;9.40;95.50
11304;DHT22;5707;49.588;12.148;2024-02-28T15:24:25;9.20;96.00
11304;DHT22;5707;49.588;12.148;2024-02-28T15:26:52;8.90;96.10
11304;DHT22;5707;49.588;12.148;2024-02-28T15:29:17;8.60;97.00
11304;DHT22;5707;49.588;12.148;2024-02-28T15:31:44;8.10;98.20
11304;DHT22;5707;49.588;12.148;2024-02-28T15:34:10;7.60;99.20
11304;DHT22;5707;49.588;12.148;2024-02-28T15:36:36;7.20;99.90